Mitgliederbereich
Imprimable
Butgenbach, 26/07/2014, BEL - Tour du Lac - Aquathlon - Cross triathlon
Liste der Berichte > Cross Triathlon - Ergebnis
Suche: Seite: [1]
90 Eingaben
 
Les réclamations ne sont plus acceptées, les résultats sont considérés comme définitifs.
Kategorie
PosNrNameAgeNATMannschaftRealZeitTkmMoy.PlatzNameStadt
1.10153HIBBE Tobias24DEUBRANDER SV TRI 1:21:431:21:438:11 7.341m24STOLBERGT?l?chargez votre diplome!
2.10188SCHOUTEN Rorik39NLDTV HOLLANDIA1:22:581:22:588:18 7.232m24HOOGWOUDT?l?chargez votre diplome!
3.10178NICOLAS Corentin28BELTRI4US1:23:461:23:468:23 7.163m24SOYET?l?chargez votre diplome!
4.10191SONNET Joshua21BELTRIATHLON ARDEN1:25:371:25:378:34 7.011mu23BERGT?l?chargez votre diplome!
5.10108BARA Paul19BELTRIGT1:25:531:25:538:36 6.991m18BRUNEHAUTT?l?chargez votre diplome!
6.10136FRANZKY Johannes33DEUASV KÖLN TRIATH1:27:421:27:428:47 6.844m24HÜRTHT?l?chargez votre diplome!
7.10118CHERKAOUI MAJID M&m'S28BEL1:28:151:28:158:50 6.805m24LIEGET?l?chargez votre diplome!
8.10158JURGENS Thomas22BEL1:28:191:28:198:50 6.792mu23LIERT?l?chargez votre diplome!
9.10113BOURGUIGNON Antoine26BELTRI4US1:28:401:28:408:52 6.776m24MOZETT?l?chargez votre diplome!
10.10181PIRON Julien28BELTRI4US1:29:081:29:088:55 6.737m24NAMURT?l?chargez votre diplome!
11.10116BUFFET Kevin27BELTNT1:29:361:29:368:58 6.708m24TEMPLOUXT?l?chargez votre diplome!
12.10177NICOLAS Bastien26BELTRI4US1:31:251:31:259:09 6.569m24SOYET?l?chargez votre diplome!
13.10169MAHAUX Olivier38BELTRIATHLON ARDEN1:31:321:31:329:10 6.5610m24TROIS-PONTST?l?chargez votre diplome!
14.10137GABLER Martin30DEU1:33:231:33:239:21 6.4311m24BITBURGT?l?chargez votre diplome!
15.10145GRANDMAIRE Vincent35BELTRIATHLON ARDEN1:33:351:33:359:22 6.4112m24STAVELOTT?l?chargez votre diplome!
16.10106ALBERT Julien29BELESN1:33:451:33:459:23 6.4013m24NEUVILLET?l?chargez votre diplome!
17.10132FEILEN Christian38DEUSC BLAU-WEIß SC1:33:591:33:599:24 6.3814m24ALFLENT?l?chargez votre diplome!
18.10126DE MUNTER Alain48BEL1:34:041:34:049:25 6.381m40HULDENBERGT?l?chargez votre diplome!
19.10162KLINGES Olivier46BEL1:34:081:34:089:25 6.372m40ST.VITHT?l?chargez votre diplome!
20.10167LIÉVIN Bruno33BEL1:34:171:34:179:26 6.3615m24OTTIGNIEST?l?chargez votre diplome!
21.10112BOUCHET Kevin20FRATRI GT1:34:361:34:369:28 6.343mu23MAULDET?l?chargez votre diplome!
22.10168LOBEN Sebastian33DEU1:34:511:34:519:30 6.3316m24EUSKIRCHENT?l?chargez votre diplome!
23.10119FDAMMEKENS Mandy29BELCOMPRESSPORT BE1:35:091:35:099:31 6.311f24THUILLIEST?l?chargez votre diplome!
24.10134FFONDERMANN Rebecca35DEUTEAM ROTER LÖWE1:35:191:35:199:32 6.292f24BONNT?l?chargez votre diplome!
25.10199VAN BENEDEN Lionel22BEL1:36:351:36:359:40 6.214mu23NIL-SAINT-VINCENTT?l?chargez votre diplome!
26.10130DOYEN Ludovic16BEL1:37:001:37:009:42 6.191m16THEUXT?l?chargez votre diplome!
27.10154HUPPERTZ Pascal35DEUTEAM COOLART!1:37:481:37:489:47 6.1417m24NIEDERZIERT?l?chargez votre diplome!
28.10109BELKHAYAT Ghandhi42BELTRIGT1:38:161:38:169:50 6.113m40ERET?l?chargez votre diplome!
29.10210VELZ Alexander33BELSCBTRI1:38:251:38:259:51 6.1018m24BÜLLINGENT?l?chargez votre diplome!
30.10164LEFEBVRE François19BELTRIGT1:39:181:39:189:56 6.042m18KAINT?l?chargez votre diplome!
31.10192SPITS Vincent48BELTNT1:39:221:39:229:57 6.044m40COGNELÉET?l?chargez votre diplome!
32.10187SCHELD Urban50DEUDUALES SYSTEM T1:39:381:39:389:58 6.021m50SCHLEIDENT?l?chargez votre diplome!
33.10160KEBECK Rüdiger43DEUASV SÜCHTELN1:41:241:41:2410:09 5.925m40VIERSENT?l?chargez votre diplome!
34.10121DEFECHEREUX Fabian43BELTEAM VL1:42:501:42:5010:17 5.846m40ESNEUXT?l?chargez votre diplome!
35.10171MARTIN Yves39BEL(H)UPPSALA OTTE1:43:071:43:0710:19 5.8219m24OTTENBURGT?l?chargez votre diplome!
36.10212VON SEHT Enno32DEUASV KOLN TRIATH1:43:081:43:0810:19 5.8220m24KÖLNT?l?chargez votre diplome!
37.10208WIEGNER Niels17DEUDUALES SYSTEM T1:43:191:43:1910:20 5.812m16SCHLEIDENT?l?chargez votre diplome!
38.10127DESTAERKE Thomas17BELTNT1:43:191:43:1910:20 5.813m16NAMURT?l?chargez votre diplome!
39.10211LUTAS Esteban21FRATRIGT1:43:191:43:1910:20 5.815mu23HASNONT?l?chargez votre diplome!
40.10200VANDEN BROECK Nico37BEL1:43:331:43:3310:22 5.8021m24OTTENBURGT?l?chargez votre diplome!
41.10209WOLFS Toby37BEL1:43:471:43:4710:23 5.7822m24BILZENT?l?chargez votre diplome!
42.10207WEYNANTS Martin30BEL1:45:171:45:1710:32 5.7023m24THON-SAMSONT?l?chargez votre diplome!
43.10117CAULLET Olivier49BELUTT1:45:341:45:3410:34 5.687m40CHAUMONT GISTOUXT?l?chargez votre diplome!
44.10120DE BEUL Bart46BEL1:46:111:46:1110:38 5.658m40MOORSELT?l?chargez votre diplome!
45.10197VAESEN Philippe32BEL1:46:281:46:2810:39 5.6424m24SAINT REMYT?l?chargez votre diplome!
46.10165FLEJEUNE Emmanuelle42BEL1:48:171:48:1710:50 5.541f40SPRIMONTT?l?chargez votre diplome!
47.10189SCORY Florian17DEUDUALES SYSTEM T1:48:471:48:4710:53 5.524m16SCHLEIDENT?l?chargez votre diplome!
48.10190SNEIJERS Ronald38BEL1:50:301:50:3011:03 5.4325m24OTTENBURGT?l?chargez votre diplome!
49.10193STEFFENS Peter48DEUTRI TEAM EUPEN1:50:591:50:5911:06 5.419m40MONSCHAUT?l?chargez votre diplome!
50.10133FLAHAUT Benoît39BEL1:51:281:51:2811:09 5.3826m24HANRETT?l?chargez votre diplome!
51.10204VANLOO Xavier24BEL1:51:501:51:5011:11 5.3727m24VERVIERST?l?chargez votre diplome!
52.10203VAN IMPE Bart44BEL3KTL1:52:261:52:2611:15 5.3410m40MASSEMENT?l?chargez votre diplome!
53.10170MARÉCHAL David32BELTDCH1:53:091:53:0911:19 5.3028m24DISONT?l?chargez votre diplome!
54.10186FROSU Adeline26BELTDCH1:53:231:53:2311:21 5.293f24LIÈGET?l?chargez votre diplome!
55.10185ROOMANS Benoit38BEL1:53:351:53:3511:22 5.2829m24HERVET?l?chargez votre diplome!
56.10196TOISOUL Eric53BELUTT1:56:121:56:1211:38 5.162m50AUVELAIST?l?chargez votre diplome!
57.10213BOSTEN Manfred Felix44BELTRI TEAM EUPEN1:56:181:56:1811:38 5.1611m40EUPENT?l?chargez votre diplome!
58.10195THOMAS Benoît32BEL1:57:121:57:1211:44 5.1230m24LONZÉET?l?chargez votre diplome!
59.10152FHIBBE Hanna-Lena25DEULG MÜTZENICH1:58:541:58:5411:54 5.054f24STOLBERGT?l?chargez votre diplome!
60.10151HEINEN Robert46DEUTRIATHLON TEAM 1:59:321:59:3211:58 5.0212m40STOLBERGT?l?chargez votre diplome!
61.10205VERMAELEN Johan38BEL2:00:342:00:3412:04 4.9831m24HOLSBEEKT?l?chargez votre diplome!
62.10194THOMA Ralph51DEURALPH-THOMA.DE 2:01:022:01:0212:07 4.963m50MÜTZENICHT?l?chargez votre diplome!
63.10123DELHOUGNE Stéphane46BEL2:01:122:01:1212:08 4.9513m40EMBOURGT?l?chargez votre diplome!
64.10101ADAM DEUADAM2:01:562:01:5612:12 4.921relAACHENT?l?chargez votre diplome!
65.10157JERUSALEM Andreas29BEL2:03:022:03:0212:19 4.8832m24RAERENT?l?chargez votre diplome!
66.10166FLIEGEOIS Manon22BELTDCH2:04:562:04:5612:30 4.801fu23AUBELT?l?chargez votre diplome!
67.10163LARDINOIS Patrick51BEL2:06:292:06:2912:39 4.744m50THEUXT?l?chargez votre diplome!
68.10180FPIRARD Catherine37BEL2:07:072:07:0712:43 4.725f24ESNEUXT?l?chargez votre diplome!
69.10125DEMELENNE Jean-Marc42BEL2:07:292:07:2912:45 4.7114m40EMBOURGT?l?chargez votre diplome!
70.10103CLUB MECS 2 BELCLUB MECS 22:09:482:09:4812:59 4.622relELSENBORNT?l?chargez votre diplome!
71.10146FGRONDAL Sophie38BEL2:11:092:11:0913:07 4.586f24EMBOURGT?l?chargez votre diplome!
72.10156FJAMART Diane26BEL2:12:042:12:0413:13 4.547f24TILFFT?l?chargez votre diplome!
73.10124DELSUPEXHE Patrick50BEL2:13:412:13:4113:23 4.495m50OUPEYET?l?chargez votre diplome!
74.10198FVANAUBEL Nathalie27BEL2:13:462:13:4613:23 4.498f24ETTERBEEKT?l?chargez votre diplome!
75.10105FLG MÜTZENICH DEULG MÜTZENICH2:14:402:14:4013:28 4.463relMÜTZENICHT?l?chargez votre diplome!
76.10102CLUB MECS 1 BELCLUB MECS 12:17:092:17:0913:43 4.374relELSENBORNT?l?chargez votre diplome!
77.10115BRUNO Thevissen40BEL2:19:362:19:3613:58 4.3015m40EYNATTENT?l?chargez votre diplome!
78.10172FMASSON Laura18BELTTF2:24:182:24:1814:26 4.161f18FRAIPONTT?l?chargez votre diplome!
79.10161FKINET Anabelle42BEL2:26:302:26:3014:39 4.102f40EMBOURGT?l?chargez votre diplome!
80.10128DEWATTINES Michel62BELTRIATH2:27:242:27:2414:45 4.071m60CHIEVREST?l?chargez votre diplome!
81.10202FVAN HOOLANDT Martine52BELTRIATH2:27:242:27:2414:45 4.071f50VAUDIGNIEST?l?chargez votre diplome!
82.10159KAULARD Herbert63DEUSKIKELLER KAULA2:30:062:30:0615:01 4.002m60SIMMERATHT?l?chargez votre diplome!
83.10140FGAMBARTE Cecilia30ESP2:35:252:35:2515:33 3.869f24BELFORTT?l?chargez votre diplome!
84.10129FDOMÍNGUEZ Laura30ESP2:47:082:47:0816:43 3.5910f24BRUXELLEST?l?chargez votre diplome!
85.10104CLUB MECS 3 BELCLUB MECS 33:00:423:00:4218:05 3.325relELSENBORNT?l?chargez votre diplome!
86.10141GARCÍA-HERAS Javier34ESP3:00:543:00:5418:06 3.3233m24ARENAS DE SAN PEDROT?l?chargez votre diplome!
87.10175MÉLARD Michel60BEL3:11:313:11:3119:10 3.133m60OUPEYET?l?chargez votre diplome!
DNF10110FBODDEN Ute48DEUSKIKELLER KAULAf40ESCHWEILER
DNF10142FGEMINE Pauline27BELTCDMf24ANDENNE
DNF10201VANDERLYNDEN Thomas43BELPMXm40ARLON
DNF: abandon; DSQ: disqualifié; Vitesse en km/h
Seite: [1]